Time;durP1;ratioP1;P1;durP2;ratioP2;P2;SDS_P1;SDS_P2;PMS_P1;PMS_P2;Temp;Humidity;BMP_temperature;BMP_pressure;BME280_temperature;BME280_humidity;BME280_pressure;Samples;Min_cycle;Max_cycle;Signal;HPM_P1;HPM_P2
2022/07/27 00:01:06;;;;;;;6.13;0.77;;;;;;;14.89;94.93;101575.53;6266856;28;20045;-76
2022/07/27 00:04:07;;;;;;;0.57;0.50;;;;;;;14.83;93.04;101578.56;6275272;28;20049;-76
2022/07/27 00:07:08;;;;;;;3.50;1.05;;;;;;;14.83;94.10;101577.72;6275092;28;20056;-76
2022/07/27 00:10:10;;;;;;;0.65;0.55;;;;;;;14.82;94.35;101576.00;6274886;28;20057;-75
2022/07/27 00:13:12;;;;;;;0.77;0.55;;;;;;;14.78;95.69;101571.84;6274862;28;20063;-76
2022/07/27 00:16:14;;;;;;;0.57;0.50;;;;;;;14.81;96.74;101567.22;6274501;28;20051;-75
2022/07/27 00:19:16;;;;;;;2.25;0.60;;;;;;;14.81;96.92;101563.72;6275046;28;20060;-76
2022/07/27 00:22:17;;;;;;;2.47;0.35;;;;;;;14.78;97.20;101561.25;6272170;28;20045;-76
2022/07/27 00:25:18;;;;;;;1.20;0.63;;;;;;;14.77;97.51;101560.41;6225608;28;20410;-75
2022/07/27 00:28:21;;;;;;;1.27;0.40;;;;;;;14.72;98.68;101562.47;6225233;28;20421;-76
2022/07/27 00:31:22;;;;;;;1.15;0.55;;;;;;;14.66;99.73;101558.34;6225575;28;20046;-76
2022/07/27 00:34:24;;;;;;;0.43;0.30;;;;;;;14.66;100.00;101568.09;6225419;28;20054;-75
2022/07/27 00:37:25;;;;;;;2.13;0.60;;;;;;;14.63;100.00;101577.06;6225063;28;20062;-75
2022/07/27 00:40:27;;;;;;;2.10;0.30;;;;;;;14.61;99.99;101576.28;6224841;28;20057;-76
2022/07/27 00:43:29;;;;;;;1.67;0.40;;;;;;;14.59;99.76;101575.53;6224743;28;20053;-76
2022/07/27 00:46:31;;;;;;;1.95;0.38;;;;;;;14.57;100.00;101571.25;6223707;28;20061;-76
2022/07/27 00:49:32;;;;;;;0.47;0.47;;;;;;;14.48;98.76;101577.91;6225077;28;20085;-75
2022/07/27 00:52:34;;;;;;;0.40;0.40;;;;;;;14.42;98.83;101578.25;6225663;28;20973;-75
2022/07/27 00:55:35;;;;;;;0.55;0.40;;;;;;;14.43;99.84;101570.22;6224572;28;20053;-75
2022/07/27 00:58:38;;;;;;;3.13;0.55;;;;;;;14.40;100.00;101577.50;6224578;28;20046;-76
2022/07/27 01:01:40;;;;;;;0.40;0.40;;;;;;;14.37;100.00;101575.00;6224330;28;20052;-75
2022/07/27 01:04:41;;;;;;;1.00;0.50;;;;;;;14.36;100.00;101566.22;6224127;28;20050;-76
2022/07/27 01:07:43;;;;;;;0.32;0.32;;;;;;;14.36;100.00;101560.94;6224506;28;20049;-76
2022/07/27 01:10:44;;;;;;;4.32;0.40;;;;;;;14.30;100.00;101561.25;6224154;28;20653;-76
2022/07/27 01:13:47;;;;;;;0.50;0.40;;;;;;;14.27;100.00;101564.09;6223716;28;20060;-76
2022/07/27 01:16:50;;;;;;;1.38;0.55;;;;;;;14.22;100.00;101558.22;6224483;28;20077;-76
2022/07/27 01:19:52;;;;;;;1.33;0.73;;;;;;;14.15;100.00;101565.63;6224089;28;20057;-75
2022/07/27 01:22:55;;;;;;;2.13;0.85;;;;;;;14.11;100.00;101568.50;6224992;28;20074;-76
2022/07/27 01:25:56;;;;;;;0.55;0.40;;;;;;;14.10;100.00;101565.03;6223831;28;20057;-76
2022/07/27 01:28:59;;;;;;;1.23;0.60;;;;;;;14.08;100.00;101571.31;6224093;28;20060;-76
2022/07/27 01:32:01;;;;;;;2.17;0.70;;;;;;;14.06;100.00;101567.91;6223358;28;20052;-75
2022/07/27 01:35:02;;;;;;;1.17;0.63;;;;;;;14.01;100.00;101575.25;6223840;28;20056;-76
2022/07/27 01:38:05;;;;;;;4.10;0.50;;;;;;;13.99;100.00;101577.97;6223561;28;20046;-75
2022/07/27 01:41:07;;;;;;;1.45;0.40;;;;;;;13.93;100.00;101576.50;6223184;28;20046;-76
2022/07/27 01:44:08;;;;;;;0.88;0.50;;;;;;;13.91;100.00;101567.81;6223574;28;20076;-75
2022/07/27 01:47:09;;;;;;;2.58;0.60;;;;;;;13.86;100.00;101576.94;6223497;28;20061;-75
2022/07/27 01:50:11;;;;;;;1.27;0.50;;;;;;;13.86;100.00;101575.13;6223358;28;20074;-76
2022/07/27 01:53:14;;;;;;;4.30;0.80;;;;;;;13.86;100.00;101580.44;6224462;28;20042;-75
2022/07/27 01:56:15;;;;;;;0.50;0.40;;;;;;;13.84;100.00;101573.50;6223171;28;20480;-76
2022/07/27 01:59:17;;;;;;;2.00;0.52;;;;;;;13.81;100.00;101568.41;6223027;28;20489;-76
2022/07/27 02:02:18;;;;;;;1.55;0.40;;;;;;;13.74;100.00;101570.50;6223178;28;20054;-76
2022/07/27 02:05:19;;;;;;;1.05;0.63;;;;;;;13.73;100.00;101571.44;6223040;28;20054;-76
2022/07/27 02:08:22;;;;;;;2.10;0.88;;;;;;;13.74;100.00;101567.00;6222978;28;20464;-76
2022/07/27 02:14:42;;;;;;;0.63;0.60;;;;;;;13.69;100.00;101568.09;6223075;28;20053;-75
2022/07/27 02:17:44;;;;;;;1.45;0.47;;;;;;;13.69;100.00;101567.25;6222770;28;20494;-75
2022/07/27 02:20:45;;;;;;;2.88;0.50;;;;;;;13.67;100.00;101574.38;6222704;28;20054;-76
2022/07/27 02:23:48;;;;;;;0.47;0.47;;;;;;;13.63;100.00;101570.22;6235442;28;20049;-75
2022/07/27 02:26:49;;;;;;;1.65;0.60;;;;;;;13.55;100.00;101573.28;6247114;28;20390;-75
2022/07/27 02:29:51;;;;;;;3.47;0.55;;;;;;;13.53;100.00;101574.28;6246807;28;20049;-75
2022/07/27 02:32:52;;;;;;;2.17;0.77;;;;;;;13.47;100.00;101564.88;6247187;28;20136;-75
2022/07/27 02:35:54;;;;;;;0.47;0.40;;;;;;;13.47;100.00;101569.31;6246907;28;20064;-76
2022/07/27 02:38:57;;;;;;;0.55;0.50;;;;;;;13.45;100.00;101572.06;6247030;28;20049;-76
2022/07/27 02:41:58;;;;;;;0.52;0.47;;;;;;;13.44;100.00;101571.19;6246608;28;20045;-75
2022/07/27 02:45:00;;;;;;;1.70;0.82;;;;;;;13.41;100.00;101576.63;6246556;28;20520;-76
2022/07/27 02:48:01;;;;;;;0.75;0.55;;;;;;;13.38;100.00;101576.78;6246902;28;20049;-75
2022/07/27 02:51:03;;;;;;;0.75;0.75;;;;;;;13.34;100.00;101577.03;6246303;28;20053;-76
2022/07/27 02:54:06;;;;;;;5.25;0.93;;;;;;;13.30;100.00;101573.69;6244929;28;20049;-75
2022/07/27 02:57:07;;;;;;;2.42;0.80;;;;;;;13.30;100.00;101567.53;6244943;28;20054;-76
2022/07/27 03:00:12;;;;;;;1.38;0.60;;;;;;;13.25;100.00;101567.78;6246638;28;20136;-75
2022/07/27 03:03:14;;;;;;;0.88;0.50;;;;;;;13.21;100.00;101576.75;6246379;28;20052;-75
2022/07/27 03:06:15;;;;;;;1.20;0.75;;;;;;;13.19;100.00;101573.34;6245882;28;20414;-75
2022/07/27 03:09:18;;;;;;;2.83;1.05;;;;;;;13.11;100.00;101572.88;6247677;28;20057;-76
2022/07/27 03:12:19;;;;;;;1.80;1.05;;;;;;;13.18;100.00;101574.28;6251354;28;20041;-76
2022/07/27 03:15:20;;;;;;;3.72;0.95;;;;;;;13.25;100.00;101575.69;6251560;28;20061;-75
2022/07/27 03:18:22;;;;;;;2.17;1.00;;;;;;;13.27;100.00;101575.66;6251448;28;20057;-76
2022/07/27 03:21:23;;;;;;;2.42;1.17;;;;;;;13.26;100.00;101569.47;6251270;28;20056;-75
2022/07/27 03:24:26;;;;;;;6.18;1.00;;;;;;;13.27;100.00;101570.38;6249787;28;20049;-76
2022/07/27 03:27:28;;;;;;;1.92;1.15;;;;;;;13.28;100.00;101570.28;6251422;28;20052;-76
2022/07/27 03:30:29;;;;;;;2.53;1.23;;;;;;;13.33;100.00;101570.03;6250631;28;20197;-76
2022/07/27 03:33:30;;;;;;;1.30;0.95;;;;;;;13.37;100.00;101569.81;6251216;28;20052;-75
2022/07/27 03:36:32;;;;;;;1.60;1.17;;;;;;;13.38;100.00;101565.38;6250894;28;20049;-75
2022/07/27 03:39:34;;;;;;;1.67;0.82;;;;;;;13.38;100.00;101576.78;6227974;28;20045;-76
2022/07/27 03:42:36;;;;;;;1.77;1.00;;;;;;;13.34;100.00;101571.75;6226218;28;20042;-75
2022/07/27 03:45:37;;;;;;;5.65;1.23;;;;;;;13.31;100.00;101574.56;6226304;28;20061;-76
2022/07/27 03:48:39;;;;;;;3.10;1.23;;;;;;;13.30;100.00;101578.09;6226374;28;20053;-76
2022/07/27 03:51:41;;;;;;;1.98;1.02;;;;;;;13.30;100.00;101576.31;6228263;28;20042;-76
2022/07/27 03:54:43;;;;;;;3.17;0.98;;;;;;;13.29;100.00;101573.75;6226141;28;20054;-75
2022/07/27 03:57:45;;;;;;;2.85;0.70;;;;;;;13.31;100.00;101574.56;6226281;28;20132;-76
2022/07/27 04:00:46;;;;;;;3.33;0.93;;;;;;;13.32;100.00;101581.53;6226122;28;20425;-77
2022/07/27 04:03:47;;;;;;;1.73;1.10;;;;;;;13.27;100.00;101586.19;6225841;28;20054;-76
2022/07/27 04:06:49;;;;;;;3.05;1.23;;;;;;;13.20;100.00;101575.06;6226093;28;20054;-76
2022/07/27 04:09:51;;;;;;;1.50;1.05;;;;;;;13.18;100.00;101575.16;6225685;28;20053;-76
2022/07/27 04:12:53;;;;;;;1.88;1.08;;;;;;;13.11;100.00;101586.06;6225707;28;20054;-76
2022/07/27 04:15:56;;;;;;;2.78;1.20;;;;;;;13.05;100.00;101583.75;6225627;28;20050;-76
2022/07/27 04:18:57;;;;;;;1.00;0.85;;;;;;;13.07;100.00;101584.53;6225951;28;20053;-76
2022/07/27 04:21:59;;;;;;;1.42;1.20;;;;;;;13.06;100.00;101581.03;6225509;28;20457;-75
2022/07/27 04:25:01;;;;;;;3.78;1.67;;;;;;;13.06;100.00;101586.31;6225733;28;20050;-76
2022/07/27 04:28:03;;;;;;;5.05;1.00;;;;;;;13.10;100.00;101587.03;6225705;28;20053;-76
2022/07/27 04:31:04;;;;;;;1.45;1.10;;;;;;;13.08;100.00;101592.38;6225038;28;20042;-75
2022/07/27 04:34:05;;;;;;;2.10;1.13;;;;;;;13.06;100.00;101586.31;6225247;28;20050;-76
2022/07/27 04:37:07;;;;;;;2.50;1.13;;;;;;;13.04;100.00;101588.19;6225152;28;20053;-76
2022/07/27 04:40:11;;;;;;;1.70;1.08;;;;;;;13.15;100.00;101583.22;6225324;28;20512;-75
2022/07/27 04:43:13;;;;;;;0.77;0.73;;;;;;;13.15;100.00;101592.91;6224805;28;20429;-75
2022/07/27 04:46:15;;;;;;;3.42;1.45;;;;;;;13.09;100.00;101590.59;6225052;28;20057;-76
2022/07/27 04:49:16;;;;;;;1.73;1.35;;;;;;;13.12;100.00;101591.28;6224796;28;20050;-76
2022/07/27 04:52:17;;;;;;;3.03;1.20;;;;;;;13.17;100.00;101596.31;6226028;28;20046;-76
2022/07/27 04:55:20;;;;;;;1.75;1.23;;;;;;;13.09;100.00;101594.09;6249227;28;20045;-76
2022/07/27 04:58:22;;;;;;;4.10;1.50;;;;;;;13.08;100.00;101600.31;6239764;28;20057;-75
2022/07/27 05:01:24;;;;;;;1.50;1.20;;;;;;;13.02;100.00;101603.22;6235545;28;20045;-76
2022/07/27 05:04:25;;;;;;;7.13;2.08;;;;;;;12.99;100.00;101603.41;6233666;28;20056;-75
2022/07/27 05:07:27;;;;;;;1.50;1.35;;;;;;;12.99;100.00;101607.78;6235578;28;20046;-76
2022/07/27 05:10:29;;;;;;;4.03;2.00;;;;;;;12.99;100.00;101599.88;6234970;28;20042;-76
2022/07/27 05:13:31;;;;;;;3.03;1.42;;;;;;;13.04;100.00;101604.03;6228956;28;20045;-75
2022/07/27 05:16:32;;;;;;;2.20;1.65;;;;;;;13.10;100.00;101600.22;6234787;28;20053;-76
2022/07/27 05:19:33;;;;;;;5.45;1.38;;;;;;;13.16;100.00;101605.16;6234693;28;20044;-76
2022/07/27 05:22:35;;;;;;;1.67;1.27;;;;;;;13.17;100.00;101615.69;6234406;28;20045;-75
2022/07/27 05:25:37;;;;;;;2.83;1.55;;;;;;;13.20;100.00;101609.38;6246847;28;20072;-76
2022/07/27 05:28:39;;;;;;;2.40;1.42;;;;;;;13.25;100.00;101614.44;6248600;28;20052;-75
2022/07/27 05:31:40;;;;;;;1.98;1.27;;;;;;;13.32;100.00;101616.72;6247635;28;20424;-76
2022/07/27 05:34:42;;;;;;;1.98;1.25;;;;;;;13.37;100.00;101616.47;6248178;28;20057;-75
2022/07/27 05:37:43;;;;;;;1.65;1.00;;;;;;;13.40;100.00;101611.03;6248582;28;20077;-76
2022/07/27 05:40:46;;;;;;;3.08;1.33;;;;;;;13.45;100.00;101625.72;6248071;28;20413;-76
2022/07/27 05:43:47;;;;;;;8.45;1.60;;;;;;;13.53;100.00;101621.81;6247977;28;20052;-76
2022/07/27 05:46:49;;;;;;;5.18;1.30;;;;;;;13.62;100.00;101635.38;6248243;28;20054;-76
2022/07/27 05:49:50;;;;;;;3.67;1.10;;;;;;;13.66;100.00;101628.16;6247758;28;20424;-76
2022/07/27 05:52:51;;;;;;;4.38;1.05;;;;;;;13.75;100.00;101632.13;6248114;28;20045;-75
2022/07/27 05:55:54;;;;;;;1.10;1.00;;;;;;;13.87;100.00;101631.47;6226636;28;20502;-76
2022/07/27 05:58:56;;;;;;;3.45;1.40;;;;;;;13.99;100.00;101628.19;6223651;28;20049;-75
2022/07/27 06:01:57;;;;;;;2.50;1.13;;;;;;;14.04;100.00;101628.78;6223029;28;20049;-76
2022/07/27 06:04:59;;;;;;;2.08;1.00;;;;;;;14.08;100.00;101632.97;6222988;28;20054;-76
2022/07/27 06:08:02;;;;;;;4.03;0.80;;;;;;;14.14;100.00;101639.72;6223355;28;20064;-76
2022/07/27 06:11:04;;;;;;;2.42;0.77;;;;;;;14.19;100.00;101643.81;6222727;28;20057;-75
2022/07/27 06:14:06;;;;;;;1.45;0.73;;;;;;;14.24;100.00;101640.94;6223156;28;20052;-76
2022/07/27 06:17:08;;;;;;;2.58;0.73;;;;;;;14.32;100.00;101638.72;6223057;28;20050;-76
2022/07/27 06:20:09;;;;;;;1.77;0.95;;;;;;;14.34;100.00;101642.13;6222776;28;20046;-76
2022/07/27 06:23:11;;;;;;;3.08;0.60;;;;;;;14.36;100.00;101642.91;6222651;28;20049;-75
2022/07/27 06:26:13;;;;;;;3.13;0.77;;;;;;;14.42;100.00;101639.06;6242986;28;20060;-76
2022/07/27 06:29:15;;;;;;;3.20;0.80;;;;;;;14.50;99.53;101643.97;6247266;28;20053;-75
2022/07/27 06:32:16;;;;;;;2.38;0.93;;;;;;;14.52;99.00;101642.94;6247097;28;20519;-76
2022/07/27 06:35:17;;;;;;;0.68;0.30;;;;;;;14.55;99.38;101639.28;6247032;28;20049;-76
2022/07/27 06:38:18;;;;;;;0.90;0.65;;;;;;;14.60;99.13;101647.81;6246844;28;20531;-75
2022/07/27 06:41:21;;;;;;;0.60;0.50;;;;;;;14.64;96.50;101650.19;6246983;28;20052;-76
2022/07/27 06:44:22;;;;;;;0.60;0.40;;;;;;;14.72;93.43;101652.44;6245729;28;20049;-76
2022/07/27 06:47:24;;;;;;;6.45;0.50;;;;;;;14.78;90.95;101649.41;6246932;28;20053;-76
2022/07/27 06:50:25;;;;;;;1.88;0.63;;;;;;;14.83;89.70;101641.22;6246676;28;20049;-76
2022/07/27 06:53:27;;;;;;;0.50;0.28;;;;;;;14.89;90.85;101654.09;6246863;28;20045;-76
2022/07/27 06:56:29;;;;;;;0.35;0.35;;;;;;;14.98;87.30;101642.97;6227326;28;20251;-76
2022/07/27 06:59:32;;;;;;;1.73;0.88;;;;;;;15.02;85.81;101646.31;6222305;28;20049;-76
2022/07/27 07:02:34;;;;;;;2.00;0.60;;;;;;;15.07;85.56;101647.75;6222073;28;20045;-75
2022/07/27 07:05:41;;;;;;;1.70;0.60;;;;;;;15.13;85.90;101641.25;6221902;28;20057;-75
2022/07/27 07:08:43;;;;;;;0.45;0.40;;;;;;;15.20;85.70;101648.75;6222285;28;20050;-76
2022/07/27 07:11:46;;;;;;;0.75;0.28;;;;;;;15.28;84.48;101648.31;6221727;28;20093;-76
2022/07/27 07:14:47;;;;;;;3.13;0.60;;;;;;;15.36;80.90;101653.16;6222138;28;20050;-75
2022/07/27 07:17:48;;;;;;;2.75;0.30;;;;;;;15.41;80.61;101651.09;6221944;28;20061;-75
2022/07/27 07:20:50;;;;;;;1.65;0.60;;;;;;;15.46;81.33;101656.97;6221854;28;20413;-76
2022/07/27 07:23:51;;;;;;;0.80;0.40;;;;;;;15.54;79.00;101651.22;6221653;28;20050;-76
2022/07/27 07:26:54;;;;;;;0.88;0.50;;;;;;;15.58;78.26;101650.06;6223053;28;20058;-76
2022/07/27 07:29:55;;;;;;;5.65;0.50;;;;;;;15.55;79.20;101647.63;6221617;28;20489;-76
2022/07/27 07:32:57;;;;;;;0.73;0.52;;;;;;;15.64;81.27;101647.09;6221734;28;20053;-77
2022/07/27 07:35:58;;;;;;;0.95;0.40;;;;;;;15.76;81.97;101656.97;6237735;28;20056;-77
2022/07/27 07:38:59;;;;;;;0.80;0.40;;;;;;;15.85;80.80;101650.22;6254707;28;20053;-77
2022/07/27 07:42:02;;;;;;;7.28;2.67;;;;;;;15.82;78.74;101647.78;6246137;28;20050;-76
2022/07/27 07:45:04;;;;;;;1.10;0.57;;;;;;;15.82;72.44;101647.78;6221746;28;20068;-76
2022/07/27 07:48:06;;;;;;;1.92;0.77;;;;;;;15.84;72.66;101645.88;6221841;28;20053;-76
2022/07/27 07:51:07;;;;;;;3.15;0.70;;;;;;;15.92;72.99;101648.91;6225069;28;20045;-75
2022/07/27 07:54:10;;;;;;;0.20;0.20;;;;;;;16.02;74.02;101659.81;6246136;28;20056;-74
2022/07/27 07:57:12;;;;;;;2.83;0.40;;;;;;;15.99;74.39;101655.56;6248247;28;20064;-75
2022/07/27 08:00:15;;;;;;;1.65;0.35;;;;;;;16.01;76.40;101664.25;6247194;28;20049;-77
2022/07/27 08:03:17;;;;;;;0.93;0.30;;;;;;;15.97;72.92;101660.09;6253155;28;20045;-78
2022/07/27 08:06:18;;;;;;;0.85;0.50;;;;;;;15.93;73.60;101656.78;6267409;28;20468;-76
2022/07/27 08:09:20;;;;;;;0.20;0.20;;;;;;;15.97;72.07;101662.75;6255089;28;20508;-77
2022/07/27 08:12:23;;;;;;;1.77;0.30;;;;;;;16.02;69.95;101660.66;6264345;28;20067;-76
2022/07/27 08:15:26;;;;;;;1.50;0.57;;;;;;;16.18;66.16;101664.09;6275240;28;20657;-77
2022/07/27 08:18:27;;;;;;;3.20;0.77;;;;;;;16.34;65.13;101657.81;6260126;28;20045;-76
2022/07/27 08:21:28;;;;;;;2.85;0.30;;;;;;;16.42;65.31;101664.34;6260844;28;20060;-76
2022/07/27 08:24:30;;;;;;;2.72;0.43;;;;;;;16.51;64.44;101662.06;6264639;28;20037;-75
2022/07/27 08:27:33;;;;;;;0.30;0.30;;;;;;;16.65;65.62;101659.38;6245460;28;20498;-75
2022/07/27 08:30:34;;;;;;;0.50;0.38;;;;;;;16.80;64.34;101653.09;6226790;28;20050;-76
2022/07/27 08:33:36;;;;;;;0.10;0.10;;;;;;;16.72;63.63;101661.56;6254467;28;20493;-76
2022/07/27 08:36:37;;;;;;;2.67;0.32;;;;;;;16.62;64.80;101659.56;6261024;28;20052;-76
2022/07/27 08:39:38;;;;;;;4.00;0.50;;;;;;;16.54;66.38;101660.06;6258018;28;20454;-77
2022/07/27 08:42:43;;;;;;;2.00;0.30;;;;;;;16.53;66.67;101666.28;6256098;28;20056;-76
2022/07/27 08:45:50;;;;;;;0.65;0.40;;;;;;;16.42;66.70;101663.47;6274331;28;20128;-77
2022/07/27 08:48:52;;;;;;;1.30;0.47;;;;;;;16.38;68.45;101677.88;6274059;28;20052;-76
2022/07/27 08:51:54;;;;;;;4.07;0.40;;;;;;;16.46;67.36;101675.59;6263037;28;20045;-77
2022/07/27 08:54:55;;;;;;;1.77;0.43;;;;;;;16.61;68.10;101661.34;6250652;28;20417;-76
2022/07/27 08:57:59;;;;;;;2.63;0.63;;;;;;;16.78;67.28;101662.97;6255917;28;20501;-76
2022/07/27 09:01:00;;;;;;;1.92;0.60;;;;;;;16.83;66.31;101675.94;6254794;28;20057;-76
2022/07/27 09:04:02;;;;;;;0.52;0.40;;;;;;;16.72;65.15;101666.88;6252490;28;20589;-75
2022/07/27 09:07:03;;;;;;;1.42;0.50;;;;;;;16.82;62.69;101664.47;6259634;28;20048;-76
2022/07/27 09:10:06;;;;;;;2.35;0.60;;;;;;;16.96;63.79;101653.81;6273344;28;20048;-76
2022/07/27 09:13:20;;;;;;;1.60;0.40;;;;;;;16.96;62.50;101659.09;6273533;28;20053;-76
2022/07/27 09:16:29;;;;;;;0.50;0.43;;;;;;;16.92;63.29;101660.25;6273535;28;20048;-76
2022/07/27 09:19:30;;;;;;;0.55;0.40;;;;;;;16.89;65.08;101660.44;6273731;28;20053;-76
2022/07/27 09:22:39;;;;;;;2.25;0.57;;;;;;;16.90;65.31;101666.63;6273001;28;20076;-76
2022/07/27 09:25:42;;;;;;;0.70;0.47;;;;;;;16.91;65.50;101665.69;6266449;28;20049;-76
2022/07/27 09:28:45;;;;;;;0.70;0.22;;;;;;;17.03;65.61;101664.84;6224010;28;20157;-76
2022/07/27 09:31:48;;;;;;;0.90;0.40;;;;;;;17.17;65.09;101664.81;6223771;28;20169;-76
2022/07/27 09:34:49;;;;;;;0.30;0.30;;;;;;;17.23;64.72;101666.22;6223789;28;20053;-75
2022/07/27 09:37:51;;;;;;;1.77;0.40;;;;;;;17.22;61.88;101670.69;6223815;28;20061;-75
2022/07/27 09:40:58;;;;;;;2.72;0.35;;;;;;;17.16;62.40;101664.91;6223681;28;20050;-74
2022/07/27 09:44:01;;;;;;;2.08;0.40;;;;;;;17.18;62.41;101670.97;6240866;28;20045;-75
2022/07/27 09:47:20;;;;;;;0.88;0.30;;;;;;;17.21;61.71;101676.06;6248228;28;20056;-75
2022/07/27 09:50:22;;;;;;;0.32;0.25;;;;;;;17.26;61.43;101674.00;6248003;28;20053;-74
2022/07/27 09:53:26;;;;;;;2.08;0.50;;;;;;;17.19;60.74;101670.88;6237985;28;20053;-76
2022/07/27 09:56:30;;;;;;;3.97;0.40;;;;;;;17.15;61.58;101674.69;6232482;28;20050;-75
2022/07/27 09:59:32;;;;;;;2.33;0.43;;;;;;;17.17;61.36;101666.63;6223353;28;20054;-76
2022/07/27 10:02:34;;;;;;;0.50;0.35;;;;;;;17.35;61.27;101661.88;6237231;28;20053;-74
2022/07/27 10:05:36;;;;;;;0.60;0.30;;;;;;;17.56;61.09;101668.41;6247657;28;20053;-75
2022/07/27 10:08:38;;;;;;;1.48;0.43;;;;;;;17.66;60.38;101655.31;6247544;28;20049;-76
2022/07/27 10:11:40;;;;;;;0.93;0.32;;;;;;;17.75;57.90;101658.22;6228290;28;20061;-76
2022/07/27 10:14:42;;;;;;;0.30;0.20;;;;;;;17.67;58.62;101663.22;6222753;28;20046;-76
2022/07/27 10:17:44;;;;;;;1.65;0.88;;;;;;;17.58;58.95;101663.84;6223167;28;20049;-76
2022/07/27 10:20:47;;;;;;;0.20;0.20;;;;;;;17.65;57.67;101654.47;6222808;28;20537;-75
2022/07/27 10:23:57;;;;;;;2.05;0.30;;;;;;;17.77;57.37;101663.47;6222670;28;20046;-74
2022/07/27 10:26:59;;;;;;;0.85;0.73;;;;;;;17.84;56.31;101664.72;6230813;28;20064;-76
2022/07/27 10:30:05;;;;;;;0.35;0.25;;;;;;;17.85;58.19;101668.22;6247129;28;20053;-76
2022/07/27 10:33:37;;;;;;;0.98;0.30;;;;;;;17.77;59.44;101667.94;6247057;28;20046;-76
2022/07/27 10:37:07;;;;;;;1.50;0.30;;;;;;;17.71;58.86;101671.81;6246327;28;20050;-77
2022/07/27 10:40:34;;;;;;;3.70;0.30;;;;;;;17.80;59.75;101667.69;6257261;28;20049;-76
2022/07/27 10:43:35;;;;;;;0.60;0.40;;;;;;;18.00;55.83;101661.88;6262886;28;20056;-76
2022/07/27 10:46:42;;;;;;;1.70;0.50;;;;;;;17.94;56.85;101655.16;6271656;28;20056;-77
2022/07/27 10:49:44;;;;;;;4.30;0.63;;;;;;;17.88;56.42;101663.56;6271386;28;20053;-77
2022/07/27 10:52:46;;;;;;;3.05;0.30;;;;;;;17.83;56.70;101664.84;6271565;28;20049;-76
2022/07/27 10:55:49;;;;;;;1.35;0.40;;;;;;;17.90;57.27;101666.97;6258850;28;20456;-74
2022/07/27 10:58:51;;;;;;;2.42;0.70;;;;;;;17.90;59.19;101668.78;6246830;28;20053;-74
2022/07/27 11:01:58;;;;;;;0.68;0.40;;;;;;;17.92;60.47;101661.53;6246762;28;20053;-76
2022/07/27 11:05:04;;;;;;;1.75;0.77;;;;;;;17.92;60.34;101664.19;6246321;28;20056;-76
2022/07/27 11:08:05;;;;;;;1.00;0.50;;;;;;;17.96;59.70;101668.34;6246609;28;20100;-76
2022/07/27 11:11:08;;;;;;;1.05;0.95;;;;;;;18.03;59.31;101666.94;6246145;28;20056;-77
2022/07/27 11:14:10;;;;;;;2.75;0.38;;;;;;;18.10;61.22;101670.03;6246608;28;20468;-76
2022/07/27 11:17:13;;;;;;;1.30;0.75;;;;;;;18.09;60.23;101671.00;6246420;28;20069;-76
2022/07/27 11:20:14;;;;;;;1.15;0.40;;;;;;;18.03;60.71;101682.91;6246454;28;20046;-77
2022/07/27 11:23:19;;;;;;;0.85;0.43;;;;;;;18.07;60.77;101679.06;6246166;28;20417;-76
2022/07/27 11:26:22;;;;;;;2.17;0.50;;;;;;;18.11;61.01;101675.25;6242498;28;20064;-77
2022/07/27 11:29:24;;;;;;;2.53;0.43;;;;;;;18.23;60.57;101670.88;6246205;28;20056;-77
2022/07/27 11:32:27;;;;;;;0.30;0.30;;;;;;;18.30;61.08;101673.94;6250762;28;20422;-75
2022/07/27 11:35:28;;;;;;;3.85;0.52;;;;;;;18.25;62.07;101679.59;6251054;28;20045;-75
2022/07/27 11:38:29;;;;;;;2.05;0.65;;;;;;;18.19;64.77;101682.69;6250987;28;20053;-76
2022/07/27 11:41:33;;;;;;;2.20;0.70;;;;;;;18.08;65.07;101677.31;6251154;28;20052;-73
2022/07/27 11:44:38;;;;;;;2.90;0.60;;;;;;;17.94;65.09;101681.75;6250772;28;20056;-74
2022/07/27 11:47:41;;;;;;;1.38;0.60;;;;;;;17.88;65.28;101668.88;6250959;28;20436;-74
2022/07/27 11:50:56;;;;;;;0.70;0.43;;;;;;;17.91;66.32;101674.00;6250631;28;20060;-73
2022/07/27 11:54:00;;;;;;;0.30;0.28;;;;;;;18.27;64.75;101668.88;6250658;28;20097;-74
2022/07/27 11:57:03;;;;;;;1.30;0.50;;;;;;;19.31;63.49;101667.44;6237045;28;20062;-73
2022/07/27 12:00:06;;;;;;;0.73;0.50;;;;;;;19.78;60.95;101657.63;6226182;28;20457;-73
2022/07/27 12:03:19;;;;;;;0.40;0.40;;;;;;;20.49;55.43;101661.81;6225928;28;20485;-73
2022/07/27 12:06:20;;;;;;;3.65;0.68;;;;;;;20.84;50.74;101655.38;6225989;28;20050;-74
2022/07/27 12:09:22;;;;;;;1.40;0.35;;;;;;;21.01;52.21;101654.84;6237838;28;20049;-74
2022/07/27 12:12:25;;;;;;;0.47;0.43;;;;;;;21.09;50.70;101648.88;6241070;28;20046;-74
2022/07/27 12:15:27;;;;;;;0.65;0.43;;;;;;;20.96;50.88;101649.03;6230221;28;20057;-74
2022/07/27 12:18:42;;;;;;;2.42;0.50;;;;;;;20.44;52.32;101652.44;6244512;28;20049;-73
2022/07/27 12:21:51;;;;;;;2.42;0.30;;;;;;;19.90;54.00;101642.50;6253390;28;20048;-73
2022/07/27 12:24:53;;;;;;;1.77;0.90;;;;;;;19.59;55.20;101647.50;6268305;28;20096;-72
2022/07/27 12:27:56;;;;;;;0.88;0.60;;;;;;;19.16;56.25;101645.44;6241102;28;20058;-74
2022/07/27 12:30:57;;;;;;;1.63;0.38;;;;;;;18.96;57.70;101640.75;6225584;28;20060;-74
2022/07/27 12:34:01;;;;;;;1.15;0.60;;;;;;;18.82;57.58;101652.44;6225267;28;20053;-75
2022/07/27 12:37:11;;;;;;;3.03;0.60;;;;;;;18.73;59.28;101647.78;6225432;28;20054;-74
2022/07/27 12:40:15;;;;;;;1.02;0.47;;;;;;;18.85;58.99;101652.22;6225133;28;20053;-74
2022/07/27 12:43:18;;;;;;;0.52;0.50;;;;;;;19.00;59.20;101643.09;6223588;28;20050;-75
2022/07/27 12:46:19;;;;;;;3.88;0.52;;;;;;;19.00;57.78;101648.41;6225050;28;20053;-74
2022/07/27 12:49:24;;;;;;;0.98;0.47;;;;;;;19.42;55.34;101650.63;6225431;28;20120;-75
2022/07/27 12:52:25;;;;;;;0.38;0.38;;;;;;;20.15;55.86;101646.75;6225210;28;20046;-74
2022/07/27 12:55:27;;;;;;;4.03;0.60;;;;;;;20.18;53.49;101649.19;6227846;28;20045;-75
2022/07/27 12:58:28;;;;;;;1.05;0.50;;;;;;;19.96;53.67;101644.69;6249668;28;20049;-74
2022/07/27 13:01:30;;;;;;;3.10;0.60;;;;;;;19.73;53.60;101647.31;6249184;28;20050;-74
2022/07/27 13:04:32;;;;;;;0.70;0.40;;;;;;;19.47;54.31;101641.28;6249688;28;20052;-75
2022/07/27 13:07:34;;;;;;;1.50;1.15;;;;;;;19.32;56.92;101641.63;6249140;28;20056;-74
2022/07/27 13:10:36;;;;;;;1.13;0.50;;;;;;;19.33;58.24;101638.00;6249242;28;20053;-75
2022/07/27 13:13:38;;;;;;;3.38;0.50;;;;;;;19.33;58.27;101641.50;6249039;28;20060;-75
2022/07/27 13:16:39;;;;;;;3.45;0.60;;;;;;;19.23;59.38;101641.34;6249158;28;20053;-75
2022/07/27 13:19:42;;;;;;;3.22;0.40;;;;;;;19.10;60.24;101643.25;6247081;28;20049;-74
2022/07/27 13:22:44;;;;;;;1.05;0.45;;;;;;;18.91;61.32;101650.91;6248938;28;20472;-75
2022/07/27 13:25:46;;;;;;;0.75;0.60;;;;;;;18.69;62.47;101649.81;6248658;28;20068;-74
2022/07/27 13:28:48;;;;;;;0.85;0.50;;;;;;;18.56;61.41;101648.13;6248610;28;20448;-75
2022/07/27 13:31:49;;;;;;;0.63;0.50;;;;;;;18.38;59.48;101642.31;6248742;28;20053;-74
2022/07/27 13:34:52;;;;;;;2.40;0.60;;;;;;;18.32;60.20;101638.28;6248740;28;20048;-72
2022/07/27 13:37:53;;;;;;;0.30;0.30;;;;;;;18.38;57.14;101651.16;6248777;28;20497;-74
2022/07/27 13:40:55;;;;;;;1.38;0.40;;;;;;;18.52;57.93;101647.50;6248528;28;20053;-74
2022/07/27 13:43:56;;;;;;;1.05;0.55;;;;;;;18.62;57.42;101642.34;6248145;28;20045;-75
2022/07/27 13:46:58;;;;;;;3.95;0.45;;;;;;;18.73;56.35;101642.47;6248150;28;20061;-75
2022/07/27 13:50:02;;;;;;;0.77;0.50;;;;;;;18.83;57.93;101645.28;6246559;28;20072;-75
2022/07/27 13:53:03;;;;;;;0.90;0.45;;;;;;;18.78;56.52;101640.31;6247652;28;20132;-74
2022/07/27 13:56:06;;;;;;;2.13;0.40;;;;;;;18.78;58.36;101650.13;6248136;28;20056;-75
2022/07/27 13:59:07;;;;;;;5.88;0.50;;;;;;;18.83;58.52;101635.50;6247927;28;20416;-75
2022/07/27 14:02:09;;;;;;;1.48;0.57;;;;;;;18.89;58.66;101635.03;6247570;28;20050;-75
2022/07/27 14:05:13;;;;;;;4.68;0.52;;;;;;;18.99;57.52;101625.41;6247494;28;20045;-74
2022/07/27 14:08:14;;;;;;;0.75;0.60;;;;;;;19.09;55.22;101628.22;6247629;28;20188;-75